createdAt,value
2018-10-07T00:01:44.473Z,79.85
2018-10-07T00:04:13.806Z,80.36
2018-10-07T00:06:43.066Z,80.28
2018-10-07T00:09:12.384Z,80.00
2018-10-07T00:11:41.723Z,80.54
2018-10-07T00:14:10.968Z,80.39
2018-10-07T00:16:40.268Z,80.87
2018-10-07T00:19:09.538Z,80.40
2018-10-07T00:21:38.876Z,80.33
2018-10-07T00:24:08.145Z,80.72
2018-10-07T00:26:37.535Z,80.81
2018-10-07T00:29:06.878Z,80.21
2018-10-07T00:31:40.225Z,80.63
2018-10-07T00:34:09.570Z,80.97
2018-10-07T00:36:38.892Z,81.06
2018-10-07T00:39:10.322Z,80.62
2018-10-07T00:41:39.772Z,80.68
2018-10-07T00:44:09.037Z,80.11
2018-10-07T00:46:38.285Z,79.67
2018-10-07T00:49:07.524Z,79.60
2018-10-07T00:51:36.792Z,79.54
2018-10-07T00:54:06.041Z,79.26
2018-10-07T00:56:35.367Z,79.72
2018-10-07T00:59:04.632Z,79.82
2018-10-07T01:01:34.130Z,79.83
2018-10-07T01:04:03.549Z,79.94
2018-10-07T01:06:32.859Z,80.21
2018-10-07T01:09:02.079Z,80.18
2018-10-07T01:11:31.304Z,79.89
2018-10-07T01:14:00.608Z,80.18
2018-10-07T01:16:29.857Z,79.96
2018-10-07T01:18:59.088Z,80.78
2018-10-07T01:21:28.404Z,80.69
2018-10-07T01:23:57.683Z,80.05
2018-10-07T01:26:26.925Z,80.51
2018-10-07T01:28:56.143Z,80.25
2018-10-07T01:31:25.628Z,80.68
2018-10-07T01:33:54.908Z,80.54
2018-10-07T01:36:24.130Z,81.12
2018-10-07T01:38:53.408Z,80.19
2018-10-07T01:41:22.642Z,80.01
2018-10-07T01:43:51.884Z,80.27
2018-10-07T01:46:21.135Z,79.75
2018-10-07T01:48:50.389Z,80.79
2018-10-07T01:51:19.652Z,80.83
2018-10-07T01:53:49.288Z,80.75
2018-10-07T01:56:18.511Z,81.11
2018-10-07T01:58:47.760Z,80.68
2018-10-07T02:01:16.996Z,80.76
2018-10-07T02:03:46.254Z,80.50
2018-10-07T02:06:15.509Z,79.88
2018-10-07T02:08:44.744Z,80.27
2018-10-07T02:11:14.044Z,80.35
2018-10-07T02:13:43.307Z,80.63
2018-10-07T02:16:12.601Z,80.40
2018-10-07T02:18:41.849Z,81.01
2018-10-07T02:21:11.097Z,81.52
2018-10-07T02:23:40.361Z,81.81
2018-10-07T02:26:09.611Z,81.73
2018-10-07T02:28:39.079Z,82.39
2018-10-07T02:31:08.444Z,81.81
2018-10-07T02:33:37.731Z,82.11
2018-10-07T02:36:07.030Z,81.09
2018-10-07T02:38:36.907Z,81.38
2018-10-07T02:41:06.251Z,81.74
2018-10-07T02:43:35.592Z,81.64
2018-10-07T02:46:04.856Z,81.83
2018-10-07T02:48:34.151Z,81.25
2018-10-07T02:51:03.486Z,81.07
2018-10-07T02:53:32.861Z,81.33
2018-10-07T02:56:02.219Z,81.40
2018-10-07T02:58:31.530Z,81.99
2018-10-07T03:01:00.815Z,81.56
2018-10-07T03:03:30.090Z,81.58
2018-10-07T03:05:59.371Z,81.33
2018-10-07T03:08:28.633Z,81.37
2018-10-07T03:10:57.925Z,81.55
2018-10-07T03:13:27.200Z,81.28
2018-10-07T03:15:56.509Z,81.57
2018-10-07T03:18:25.830Z,81.10
2018-10-07T03:20:55.187Z,80.76
2018-10-07T03:23:24.460Z,80.04
2018-10-07T03:25:53.736Z,79.97
2018-10-07T03:28:23.035Z,80.22
2018-10-07T03:30:52.284Z,80.72
2018-10-07T03:33:21.551Z,81.03
2018-10-07T03:35:50.824Z,81.37
2018-10-07T03:38:20.093Z,81.67
2018-10-07T03:40:49.334Z,81.55
2018-10-07T03:43:18.657Z,81.43
2018-10-07T03:45:47.897Z,81.32
2018-10-07T03:48:17.192Z,81.83
2018-10-07T03:50:46.432Z,82.04
2018-10-07T03:53:15.665Z,81.74
2018-10-07T03:55:45.124Z,82.31
2018-10-07T03:58:14.388Z,82.12
2018-10-07T04:00:43.820Z,82.09
2018-10-07T04:03:13.057Z,81.62
2018-10-07T04:05:42.301Z,81.31
2018-10-07T04:08:11.558Z,80.92
2018-10-07T04:10:40.917Z,80.69
2018-10-07T04:13:10.159Z,80.84
2018-10-07T04:15:39.415Z,80.83
2018-10-07T04:18:08.696Z,80.89
2018-10-07T04:20:37.993Z,81.40
2018-10-07T04:23:07.539Z,80.94
2018-10-07T04:25:36.819Z,81.09
2018-10-07T04:28:06.076Z,81.38
2018-10-07T04:30:35.416Z,82.01
2018-10-07T04:33:04.660Z,82.11
2018-10-07T04:35:33.921Z,81.39
2018-10-07T04:38:03.172Z,81.92
2018-10-07T04:40:32.447Z,82.09
2018-10-07T04:43:01.740Z,82.08
2018-10-07T04:45:31.029Z,81.71
2018-10-07T04:48:00.310Z,81.30
2018-10-07T04:50:29.613Z,81.39
2018-10-07T04:52:58.891Z,81.84
2018-10-07T04:55:28.181Z,81.73
2018-10-07T04:57:57.448Z,81.71
2018-10-07T05:00:26.772Z,81.59
2018-10-07T05:02:56.003Z,81.80
2018-10-07T05:05:26.916Z,81.83
2018-10-07T05:07:56.227Z,82.30
2018-10-07T05:11:00.355Z,82.20
2018-10-07T05:13:42.081Z,81.99
2018-10-07T05:16:12.193Z,81.77
2018-10-07T05:18:41.498Z,82.19
2018-10-07T05:21:10.835Z,82.39
2018-10-07T05:23:40.084Z,83.00
2018-10-07T05:26:09.402Z,82.61
2018-10-07T05:28:38.744Z,82.78
2018-10-07T05:31:08.025Z,82.62
2018-10-07T05:33:37.347Z,82.60
2018-10-07T05:36:06.631Z,82.88
2018-10-07T05:38:35.925Z,83.02
2018-10-07T05:41:05.184Z,83.41
2018-10-07T05:43:34.445Z,82.47
2018-10-07T05:46:03.707Z,82.79
2018-10-07T05:48:33.000Z,83.49
2018-10-07T05:51:02.266Z,82.82
2018-10-07T05:53:31.560Z,82.62
2018-10-07T05:56:00.835Z,82.78
2018-10-07T05:58:30.520Z,82.86
2018-10-07T06:01:16.123Z,82.85
2018-10-07T06:03:59.128Z,82.45
2018-10-07T06:06:28.465Z,82.62
2018-10-07T06:08:57.730Z,82.73
2018-10-07T06:11:26.996Z,82.71
2018-10-07T06:13:56.336Z,82.22
2018-10-07T06:16:25.603Z,82.61
2018-10-07T06:18:54.871Z,82.54
2018-10-07T06:21:24.179Z,82.30
2018-10-07T06:23:53.487Z,82.30
2018-10-07T06:26:22.756Z,82.68
2018-10-07T06:28:52.031Z,82.58
2018-10-07T06:31:21.372Z,82.54
2018-10-07T06:33:50.818Z,82.52
2018-10-07T06:36:20.067Z,82.28
2018-10-07T06:38:49.348Z,82.03
2018-10-07T06:41:18.602Z,82.40
2018-10-07T06:43:47.819Z,81.83
2018-10-07T06:46:17.052Z,82.37
2018-10-07T06:48:46.288Z,81.83
2018-10-07T06:51:15.685Z,80.50
2018-10-07T06:53:44.932Z,80.19
2018-10-07T06:56:14.180Z,80.33
2018-10-07T06:58:43.419Z,79.46
2018-10-07T07:01:12.688Z,80.47
2018-10-07T07:03:41.954Z,79.16
2018-10-07T07:06:11.231Z,80.12
2018-10-07T07:08:40.522Z,80.72
2018-10-07T07:11:09.758Z,80.45
2018-10-07T07:13:39.021Z,80.24
2018-10-07T07:16:08.412Z,79.77
2018-10-07T07:18:37.765Z,79.20
2018-10-07T07:21:06.997Z,79.91
2018-10-07T07:23:36.235Z,79.38
2018-10-07T07:26:05.508Z,79.42
2018-10-07T07:28:34.740Z,78.70
2018-10-07T07:31:03.970Z,78.85
2018-10-07T07:33:33.228Z,77.59
2018-10-07T07:36:02.458Z,77.49
2018-10-07T07:38:31.688Z,77.29
2018-10-07T07:41:00.921Z,77.24
2018-10-07T07:43:30.170Z,77.48
2018-10-07T07:45:59.427Z,77.63
2018-10-07T07:48:28.658Z,77.72
2018-10-07T07:50:57.914Z,78.67
2018-10-07T07:53:27.159Z,77.68
2018-10-07T07:55:56.411Z,78.15
2018-10-07T07:58:25.689Z,77.21
2018-10-07T08:00:54.967Z,77.33
2018-10-07T08:03:24.327Z,76.49
2018-10-07T08:05:53.572Z,77.06
2018-10-07T08:08:22.808Z,77.54
2018-10-07T08:10:52.055Z,77.89
2018-10-07T08:13:21.327Z,77.65
2018-10-07T08:15:50.620Z,78.45
2018-10-07T08:18:19.859Z,78.26
2018-10-07T08:20:49.094Z,78.30
2018-10-07T08:23:18.412Z,78.08
2018-10-07T08:25:47.610Z,78.60
2018-10-07T08:28:16.847Z,78.81
2018-10-07T08:30:46.102Z,79.21
2018-10-07T08:33:15.350Z,78.87
2018-10-07T08:35:44.553Z,76.89
2018-10-07T08:38:13.797Z,71.43
2018-10-07T08:40:43.115Z,67.54
2018-10-07T08:43:12.378Z,65.63
2018-10-07T08:45:41.634Z,63.46
2018-10-07T08:48:10.880Z,60.82
2018-10-07T08:50:40.190Z,58.57
2018-10-07T08:53:09.540Z,57.57
2018-10-07T08:55:38.774Z,57.09
2018-10-07T08:58:08.073Z,53.84
2018-10-07T09:00:37.339Z,54.79
2018-10-07T09:03:06.649Z,52.22
2018-10-07T09:05:35.902Z,52.78
2018-10-07T09:08:05.136Z,52.11
2018-10-07T09:10:34.403Z,49.60
2018-10-07T09:13:03.662Z,48.49
2018-10-07T09:15:32.900Z,48.93
2018-10-07T09:18:02.167Z,46.84
2018-10-07T09:20:31.558Z,47.41
2018-10-07T09:23:00.792Z,46.65
2018-10-07T09:25:30.103Z,46.49
2018-10-07T09:27:59.999Z,47.75
2018-10-07T09:30:29.845Z,46.24
2018-10-07T09:32:59.237Z,46.19
2018-10-07T09:35:28.399Z,47.07
2018-10-07T09:37:57.850Z,46.81
2018-10-07T09:40:27.107Z,46.48
2018-10-07T09:42:56.401Z,47.37
2018-10-07T09:45:25.764Z,45.21
2018-10-07T09:47:55.212Z,43.68
2018-10-07T09:50:24.677Z,45.22
2018-10-07T09:52:53.988Z,43.32
2018-10-07T09:55:23.592Z,44.04
2018-10-07T09:57:53.125Z,42.59
2018-10-07T10:00:27.688Z,45.11
2018-10-07T10:02:56.989Z,45.75
2018-10-07T10:05:26.563Z,46.13
2018-10-07T10:07:56.750Z,46.76
2018-10-07T10:10:26.146Z,48.78
2018-10-07T10:12:55.438Z,48.69
2018-10-07T10:15:24.757Z,48.65
2018-10-07T10:18:04.552Z,47.49
2018-10-07T10:20:48.735Z,48.73
2018-10-07T10:23:30.898Z,51.01
2018-10-07T10:26:39.841Z,52.10
2018-10-07T10:29:18.640Z,52.00
2018-10-07T10:32:04.350Z,53.11
2018-10-07T10:37:20.310Z,50.98
2018-10-07T10:39:54.911Z,51.04
2018-10-07T10:43:39.112Z,46.59
2018-10-07T10:46:19.267Z,45.53
2018-10-07T10:49:20.181Z,44.26
2018-10-07T10:52:09.684Z,43.03
2018-10-07T10:54:46.409Z,40.57
2018-10-07T10:57:52.118Z,39.75
2018-10-07T11:00:30.237Z,41.36
2018-10-07T11:06:16.556Z,39.27
2018-10-07T11:08:59.855Z,38.88
2018-10-07T11:11:42.642Z,40.18
2018-10-07T11:16:30.678Z,40.23
2018-10-07T11:19:19.213Z,36.93
2018-10-07T11:22:02.164Z,39.88
2018-10-07T11:24:48.175Z,40.46
2018-10-07T11:27:35.973Z,39.50
2018-10-07T11:30:25.160Z,40.08
2018-10-07T11:33:11.307Z,38.48
2018-10-07T11:35:56.879Z,38.72
2018-10-07T11:40:45.545Z,37.62
2018-10-07T11:43:23.401Z,38.94
2018-10-07T11:46:07.197Z,36.94
2018-10-07T11:49:15.013Z,35.99
2018-10-07T11:51:56.945Z,36.26
2018-10-07T11:55:05.493Z,36.91
2018-10-07T11:57:34.784Z,37.89
2018-10-07T12:00:04.150Z,37.08
2018-10-07T12:02:33.476Z,38.52
2018-10-07T12:05:02.743Z,37.83
2018-10-07T12:07:32.990Z,38.24
2018-10-07T12:10:02.285Z,38.36
2018-10-07T12:12:31.529Z,40.64
2018-10-07T12:15:00.825Z,36.05
2018-10-07T12:17:30.172Z,37.41
2018-10-07T12:19:59.494Z,38.21
2018-10-07T12:22:28.750Z,37.08
2018-10-07T12:24:58.011Z,38.19
2018-10-07T12:27:27.379Z,37.52
2018-10-07T12:29:56.722Z,36.29
2018-10-07T12:32:26.043Z,36.37
2018-10-07T12:34:55.296Z,36.03
2018-10-07T12:37:24.588Z,35.97
2018-10-07T12:39:53.925Z,35.68
2018-10-07T12:42:23.256Z,37.89
2018-10-07T12:44:55.086Z,37.21
2018-10-07T12:47:24.412Z,36.97
2018-10-07T12:49:53.768Z,36.09
2018-10-07T12:52:23.024Z,36.84
2018-10-07T12:54:52.355Z,38.43
2018-10-07T12:57:21.743Z,39.36
2018-10-07T12:59:51.140Z,36.76
2018-10-07T13:02:20.401Z,37.85
2018-10-07T13:04:49.942Z,37.92
2018-10-07T13:07:19.315Z,37.12
2018-10-07T13:09:48.597Z,36.30
2018-10-07T13:12:17.897Z,35.80
2018-10-07T13:14:47.535Z,36.47
2018-10-07T13:17:16.799Z,35.40
2018-10-07T13:19:46.100Z,34.68
2018-10-07T13:22:15.540Z,35.07
2018-10-07T13:24:44.853Z,36.93
2018-10-07T13:27:14.145Z,38.57
2018-10-07T13:29:43.446Z,37.97
2018-10-07T13:32:12.713Z,37.28
2018-10-07T13:34:42.039Z,37.80
2018-10-07T13:37:11.319Z,36.73
2018-10-07T13:39:40.640Z,37.29
2018-10-07T13:42:09.931Z,37.24
2018-10-07T13:44:39.195Z,38.53
2018-10-07T13:47:08.540Z,37.05
2018-10-07T13:49:37.827Z,35.67
2018-10-07T13:52:07.161Z,34.27
2018-10-07T13:54:36.486Z,34.34
2018-10-07T13:57:05.742Z,34.57
2018-10-07T13:59:35.836Z,36.12
2018-10-07T14:02:05.163Z,36.45
2018-10-07T14:04:34.488Z,35.20
2018-10-07T14:07:03.845Z,37.17
2018-10-07T14:09:33.160Z,36.43
2018-10-07T14:12:02.494Z,36.48
2018-10-07T14:14:31.807Z,38.13
2018-10-07T14:17:01.141Z,37.42
2018-10-07T14:19:30.564Z,35.97
2018-10-07T14:21:59.925Z,36.97
2018-10-07T14:24:29.236Z,36.55
2018-10-07T14:26:58.526Z,36.69
2018-10-07T14:29:27.775Z,36.50
2018-10-07T14:31:57.040Z,37.74
2018-10-07T14:34:26.304Z,39.95
2018-10-07T14:36:55.578Z,40.05
2018-10-07T14:39:24.847Z,41.71
2018-10-07T14:41:54.071Z,42.38
2018-10-07T14:44:23.330Z,44.31
2018-10-07T14:46:52.572Z,45.87
2018-10-07T14:49:21.929Z,45.57
2018-10-07T14:51:51.206Z,46.67
2018-10-07T14:54:20.535Z,46.17
2018-10-07T14:56:50.007Z,47.84
2018-10-07T14:59:19.327Z,47.46
2018-10-07T15:01:48.765Z,48.61
2018-10-07T15:04:18.021Z,49.36
2018-10-07T15:06:47.496Z,49.77
2018-10-07T15:09:16.820Z,49.93
2018-10-07T15:11:46.083Z,50.19
2018-10-07T15:14:15.351Z,50.34
2018-10-07T15:16:44.664Z,50.37
2018-10-07T15:19:13.892Z,50.24
2018-10-07T15:21:43.130Z,51.33
2018-10-07T15:24:12.383Z,51.08
2018-10-07T15:26:41.714Z,50.42
2018-10-07T15:29:11.043Z,50.93
2018-10-07T15:31:40.261Z,51.67
2018-10-07T15:34:09.479Z,51.69
2018-10-07T15:36:38.739Z,49.97
2018-10-07T15:39:08.697Z,50.24
2018-10-07T15:41:37.989Z,50.58
2018-10-07T15:44:07.316Z,51.11
2018-10-07T15:46:36.555Z,51.19
2018-10-07T15:49:05.797Z,52.45
2018-10-07T15:51:35.302Z,52.97
2018-10-07T15:54:04.717Z,53.57
2018-10-07T15:56:34.009Z,54.01
2018-10-07T15:59:03.271Z,54.01
2018-10-07T16:01:32.600Z,54.03
2018-10-07T16:04:01.855Z,55.05
2018-10-07T16:06:31.178Z,56.66
2018-10-07T16:09:00.471Z,55.70
2018-10-07T16:11:29.671Z,55.76
2018-10-07T16:13:58.985Z,55.77
2018-10-07T16:16:28.221Z,54.94
2018-10-07T16:18:57.570Z,55.36
2018-10-07T16:21:26.901Z,55.37
2018-10-07T16:23:56.410Z,58.35
2018-10-07T16:26:25.819Z,59.00
2018-10-07T16:28:54.937Z,58.93
2018-10-07T16:31:24.152Z,60.08
2018-10-07T16:33:53.430Z,60.64
2018-10-07T16:36:22.711Z,61.93
2018-10-07T16:38:52.074Z,62.46
2018-10-07T16:41:21.295Z,62.88
2018-10-07T16:43:50.546Z,62.93
2018-10-07T16:46:19.781Z,63.12
2018-10-07T16:48:49.016Z,63.39
2018-10-07T16:51:18.244Z,64.79
2018-10-07T16:53:47.539Z,65.12
2018-10-07T16:56:16.778Z,65.23
2018-10-07T16:58:46.016Z,66.70
2018-10-07T17:01:15.296Z,66.01
2018-10-07T17:03:44.535Z,66.41
2018-10-07T17:06:13.788Z,66.91
2018-10-07T17:08:43.052Z,66.25
2018-10-07T17:11:12.291Z,66.23
2018-10-07T17:13:41.572Z,66.02
2018-10-07T17:16:10.810Z,65.81
2018-10-07T17:18:40.069Z,65.79
2018-10-07T17:21:09.424Z,66.14
2018-10-07T17:23:38.571Z,65.49
2018-10-07T17:26:07.973Z,66.48
2018-10-07T17:28:37.220Z,66.96
2018-10-07T17:31:06.478Z,66.77
2018-10-07T17:33:35.804Z,67.80
2018-10-07T17:36:05.084Z,67.43
2018-10-07T17:38:34.338Z,68.62
2018-10-07T17:41:03.584Z,68.26
2018-10-07T17:43:32.832Z,69.40
2018-10-07T17:46:02.132Z,69.68
2018-10-07T17:48:31.528Z,70.27
2018-10-07T17:51:00.601Z,70.27
2018-10-07T17:53:29.823Z,70.52
2018-10-07T17:55:59.056Z,69.81
2018-10-07T17:58:28.279Z,71.20
2018-10-07T18:00:57.515Z,70.86
2018-10-07T18:03:26.759Z,72.26
2018-10-07T18:05:56.025Z,71.76
2018-10-07T18:08:25.282Z,72.94
2018-10-07T18:10:54.517Z,72.09
2018-10-07T18:13:23.737Z,72.98
2018-10-07T18:15:53.016Z,73.22
2018-10-07T18:18:22.347Z,73.95
2018-10-07T18:20:51.630Z,73.68
2018-10-07T18:23:20.919Z,74.23
2018-10-07T18:25:50.171Z,73.63
2018-10-07T18:28:19.399Z,74.38
2018-10-07T18:30:48.630Z,74.08
2018-10-07T18:33:17.884Z,74.76
2018-10-07T18:35:47.110Z,74.83
2018-10-07T18:38:16.401Z,74.54
2018-10-07T18:40:45.641Z,74.88
2018-10-07T18:43:14.944Z,74.35
2018-10-07T18:45:44.153Z,75.11
2018-10-07T18:48:13.393Z,74.63
2018-10-07T18:50:42.643Z,74.63
2018-10-07T18:53:11.891Z,75.27
2018-10-07T18:55:41.140Z,75.54
2018-10-07T18:58:10.403Z,75.75
2018-10-07T19:00:39.681Z,75.44
2018-10-07T19:03:08.924Z,75.94
2018-10-07T19:05:38.267Z,75.50
2018-10-07T19:08:07.584Z,76.37
2018-10-07T19:10:36.859Z,75.76
2018-10-07T19:13:06.140Z,76.17
2018-10-07T19:15:35.446Z,76.18
2018-10-07T19:18:04.748Z,76.01
2018-10-07T19:20:34.033Z,76.00
2018-10-07T19:23:03.317Z,75.86
2018-10-07T19:25:32.588Z,76.28
2018-10-07T19:28:01.820Z,76.69
2018-10-07T19:30:31.094Z,76.38
2018-10-07T19:33:00.339Z,75.71
2018-10-07T19:35:29.617Z,76.04
2018-10-07T19:37:58.863Z,75.32
2018-10-07T19:40:28.119Z,75.91
2018-10-07T19:42:58.432Z,78.03
2018-10-07T19:45:27.787Z,77.81
2018-10-07T19:47:56.931Z,76.44
2018-10-07T19:50:26.184Z,76.67
2018-10-07T19:52:55.527Z,76.86
2018-10-07T19:55:24.823Z,77.33
2018-10-07T19:57:54.091Z,77.26
2018-10-07T20:00:23.366Z,77.49
2018-10-07T20:02:52.624Z,76.78
2018-10-07T20:05:21.922Z,76.81
2018-10-07T20:07:51.686Z,77.25
2018-10-07T20:10:21.021Z,77.58
2018-10-07T20:12:50.272Z,78.19
2018-10-07T20:15:19.533Z,79.15
2018-10-07T20:17:48.808Z,80.21
2018-10-07T20:20:18.093Z,80.24
2018-10-07T20:22:47.334Z,79.19
2018-10-07T20:25:16.727Z,79.50
2018-10-07T20:27:46.065Z,80.28
2018-10-07T20:30:15.337Z,80.00
2018-10-07T20:32:44.598Z,80.58
2018-10-07T20:35:13.883Z,80.60
2018-10-07T20:37:43.187Z,80.46
2018-10-07T20:40:19.023Z,80.80
2018-10-07T20:42:48.240Z,80.71
2018-10-07T20:45:17.512Z,80.11
2018-10-07T20:47:46.777Z,80.49
2018-10-07T20:50:16.053Z,80.11
2018-10-07T20:52:45.519Z,80.74
2018-10-07T20:55:14.816Z,80.40
2018-10-07T20:57:44.287Z,80.25
2018-10-07T21:00:13.571Z,80.00
2018-10-07T21:02:42.908Z,79.51
2018-10-07T21:05:13.014Z,79.92
2018-10-07T21:07:43.013Z,79.96
2018-10-07T21:10:12.403Z,80.00
2018-10-07T21:12:41.725Z,80.08
2018-10-07T21:15:11.025Z,80.26
2018-10-07T21:17:40.296Z,80.04
2018-10-07T21:20:09.574Z,79.78
2018-10-07T21:22:38.940Z,79.80
2018-10-07T21:25:08.286Z,80.04
2018-10-07T21:27:37.658Z,79.56
2018-10-07T21:30:07.164Z,79.34
2018-10-07T21:32:36.549Z,78.96
2018-10-07T21:35:05.834Z,79.54
2018-10-07T21:37:35.129Z,78.89
2018-10-07T21:40:04.375Z,78.98
2018-10-07T21:42:33.701Z,78.86
2018-10-07T21:45:02.935Z,78.52
2018-10-07T21:47:32.218Z,78.80
2018-10-07T21:50:01.492Z,78.65
2018-10-07T21:52:30.913Z,78.80
2018-10-07T21:55:00.085Z,79.12
2018-10-07T21:57:29.484Z,79.09
2018-10-07T21:59:59.005Z,78.59
2018-10-07T22:02:28.274Z,79.06
2018-10-07T22:04:57.528Z,79.49
2018-10-07T22:07:26.788Z,78.71
2018-10-07T22:09:56.033Z,78.46
2018-10-07T22:12:25.283Z,78.97
2018-10-07T22:14:54.535Z,78.04
2018-10-07T22:17:23.766Z,78.93
2018-10-07T22:19:53.081Z,78.84
2018-10-07T22:22:22.439Z,78.86
2018-10-07T22:24:51.733Z,78.77
2018-10-07T22:27:20.995Z,78.79
2018-10-07T22:29:50.241Z,79.41
2018-10-07T22:32:19.620Z,79.26
2018-10-07T22:34:48.898Z,78.98
2018-10-07T22:37:18.147Z,79.44
2018-10-07T22:39:47.384Z,79.33
2018-10-07T22:42:16.656Z,79.73
2018-10-07T22:44:45.937Z,80.03
2018-10-07T22:47:15.196Z,79.64
2018-10-07T22:49:44.508Z,79.47
2018-10-07T22:52:13.777Z,79.11
2018-10-07T22:54:43.049Z,79.58
2018-10-07T22:57:12.289Z,79.92
2018-10-07T22:59:41.557Z,80.53
2018-10-07T23:02:10.828Z,80.50
2018-10-07T23:04:40.431Z,80.01
2018-10-07T23:07:09.728Z,80.57
2018-10-07T23:09:38.963Z,80.69
2018-10-07T23:12:08.213Z,80.72
2018-10-07T23:14:37.460Z,80.04
2018-10-07T23:17:06.734Z,80.39
2018-10-07T23:19:35.975Z,79.80
2018-10-07T23:22:05.209Z,79.60
2018-10-07T23:24:34.442Z,79.81
2018-10-07T23:27:03.724Z,80.45
2018-10-07T23:29:32.968Z,79.74
2018-10-07T23:32:02.219Z,80.80
2018-10-07T23:34:31.462Z,80.57
2018-10-07T23:37:00.752Z,80.29
2018-10-07T23:39:30.017Z,81.17
2018-10-07T23:41:59.298Z,80.83
2018-10-07T23:44:28.572Z,80.88
2018-10-07T23:46:57.897Z,81.01
2018-10-07T23:49:27.172Z,80.67
2018-10-07T23:51:56.518Z,80.73
2018-10-07T23:54:25.737Z,81.64
2018-10-07T23:56:55.133Z,79.66
2018-10-07T23:59:24.417Z,80.13
